createdAt,value
2019-04-06T00:01:01.356Z,95431.83
2019-04-06T00:02:13.352Z,95433.26
2019-04-06T00:03:21.132Z,95432.70
2019-04-06T00:04:28.347Z,95430.99
2019-04-06T00:05:35.584Z,95432.72
2019-04-06T00:06:43.889Z,95436.39
2019-04-06T00:07:51.190Z,95435.97
2019-04-06T00:08:58.461Z,95437.21
2019-04-06T00:10:06.154Z,95436.66
2019-04-06T00:11:13.363Z,95439.64
2019-04-06T00:12:20.588Z,95435.70
2019-04-06T00:13:27.785Z,95442.09
2019-04-06T00:14:35.341Z,95443.99
2019-04-06T00:15:42.652Z,95445.89
2019-04-06T00:16:49.896Z,95445.08
2019-04-06T00:17:57.199Z,95439.89
2019-04-06T00:19:04.440Z,95445.41
2019-04-06T00:20:11.858Z,95443.78
2019-04-06T00:21:19.115Z,95449.64
2019-04-06T00:22:26.355Z,95445.28
2019-04-06T00:23:33.569Z,95448.22
2019-04-06T00:24:40.825Z,95444.68
2019-04-06T00:25:48.081Z,95441.96
2019-04-06T00:26:55.302Z,95443.60
2019-04-06T00:28:02.580Z,95439.11
2019-04-06T00:29:10.056Z,95440.24
2019-04-06T00:30:17.918Z,95435.06
2019-04-06T00:31:34.136Z,95442.23
2019-04-06T00:32:46.254Z,95438.21
2019-04-06T00:33:53.454Z,95434.33
2019-04-06T00:35:00.678Z,95438.08
2019-04-06T00:36:07.900Z,95440.06
2019-04-06T00:37:15.147Z,95436.18
2019-04-06T00:38:22.505Z,95438.98
2019-04-06T00:39:30.840Z,95437.34
2019-04-06T00:40:38.081Z,95442.39
2019-04-06T00:41:45.307Z,95439.64
2019-04-06T00:42:52.705Z,95440.45
2019-04-06T00:43:59.893Z,95438.21
2019-04-06T00:45:07.899Z,95441.62
2019-04-06T00:46:15.139Z,95439.72
2019-04-06T00:47:22.381Z,95430.66
2019-04-06T00:48:29.648Z,95433.11
2019-04-06T00:49:37.929Z,95427.45
2019-04-06T00:50:45.151Z,95428.63
2019-04-06T00:51:52.382Z,95421.33
2019-04-06T00:52:59.663Z,95429.78
2019-04-06T00:54:06.898Z,95422.49
2019-04-06T00:55:14.105Z,95423.78
2019-04-06T00:56:21.327Z,95421.80
2019-04-06T00:57:28.545Z,95418.40
2019-04-06T00:58:35.777Z,95428.28
2019-04-06T00:59:43.095Z,95421.46
2019-04-06T01:00:51.104Z,95421.13
2019-04-06T01:01:58.339Z,95419.14
2019-04-06T01:03:05.598Z,95421.86
2019-04-06T01:04:12.928Z,95420.22
2019-04-06T01:05:21.231Z,95426.22
2019-04-06T01:06:28.482Z,95425.56
2019-04-06T01:07:35.715Z,95426.86
2019-04-06T01:08:42.933Z,95429.79
2019-04-06T01:09:50.166Z,95432.38
2019-04-06T01:10:57.406Z,95429.28
2019-04-06T01:12:04.617Z,95425.74
2019-04-06T01:13:11.844Z,95429.97
2019-04-06T01:14:19.088Z,95420.43
2019-04-06T01:15:26.293Z,95426.43
2019-04-06T01:16:33.521Z,95421.73
2019-04-06T01:17:40.748Z,95421.59
2019-04-06T01:18:47.972Z,95418.53
2019-04-06T01:19:55.196Z,95418.53
2019-04-06T01:21:02.513Z,95418.88
2019-04-06T01:22:09.769Z,95417.58
2019-04-06T01:23:16.982Z,95414.98
2019-04-06T01:24:24.219Z,95417.92
2019-04-06T01:25:31.460Z,95420.17
2019-04-06T01:26:38.671Z,95420.52
2019-04-06T01:27:46.030Z,95420.17
2019-04-06T01:28:54.726Z,95421.46
2019-04-06T01:30:01.944Z,95421.13
2019-04-06T01:31:09.529Z,95427.72
2019-04-06T01:32:16.752Z,95426.56
2019-04-06T01:33:23.980Z,95428.49
2019-04-06T01:34:31.201Z,95438.03
2019-04-06T01:35:38.426Z,95438.16
2019-04-06T01:36:45.651Z,95433.94
2019-04-06T01:37:53.027Z,95436.31
2019-04-06T01:39:00.458Z,95432.34
2019-04-06T01:40:09.657Z,95433.12
2019-04-06T01:41:16.863Z,95427.86
2019-04-06T01:42:24.150Z,95430.10
2019-04-06T01:43:32.474Z,95424.84
2019-04-06T01:44:39.745Z,95425.45
2019-04-06T01:45:46.977Z,95430.78
2019-04-06T01:46:54.193Z,95425.74
2019-04-06T01:48:01.448Z,95432.20
2019-04-06T01:49:08.676Z,95424.58
2019-04-06T01:50:15.899Z,95422.81
2019-04-06T01:51:23.138Z,95419.50
2019-04-06T01:52:30.485Z,95421.17
2019-04-06T01:53:37.738Z,95417.63
2019-04-06T01:54:44.968Z,95418.45
2019-04-06T01:55:52.191Z,95418.45
2019-04-06T01:56:59.453Z,95415.86
2019-04-06T01:58:06.687Z,95422.67
2019-04-06T01:59:13.929Z,95417.16
2019-04-06T02:00:21.158Z,95418.32
2019-04-06T02:01:35.434Z,95420.91
2019-04-06T02:02:45.115Z,95418.32
2019-04-06T02:03:52.351Z,95422.67
2019-04-06T02:04:59.747Z,95420.56
2019-04-06T02:06:06.975Z,95419.62
2019-04-06T02:07:14.229Z,95419.62
2019-04-06T02:08:21.569Z,95415.26
2019-04-06T02:09:28.998Z,95412.20
2019-04-06T02:10:36.440Z,95414.28
2019-04-06T02:11:43.660Z,95420.62
2019-04-06T02:12:50.901Z,95420.14
2019-04-06T02:13:58.319Z,95421.44
2019-04-06T02:15:06.265Z,95417.55
2019-04-06T02:16:13.489Z,95420.14
2019-04-06T02:17:20.685Z,95415.78
2019-04-06T02:18:27.910Z,95416.61
2019-04-06T02:19:35.135Z,95418.24
2019-04-06T02:20:42.411Z,95416.95
2019-04-06T02:21:49.590Z,95415.66
2019-04-06T02:22:56.827Z,95418.11
2019-04-06T02:24:05.119Z,95412.12
2019-04-06T02:25:14.235Z,95416.00
2019-04-06T02:26:30.151Z,95408.71
2019-04-06T02:27:31.615Z,95413.88
2019-04-06T02:28:38.776Z,95412.46
2019-04-06T02:29:46.198Z,95408.71
2019-04-06T02:31:15.888Z,95411.30
2019-04-06T02:32:33.133Z,95413.75
2019-04-06T02:33:57.879Z,95416.26
2019-04-06T02:35:31.731Z,95417.21
2019-04-06T02:37:08.131Z,95418.58
2019-04-06T02:38:25.013Z,95414.84
2019-04-06T02:40:00.312Z,95419.06
2019-04-06T02:41:26.457Z,95422.59
2019-04-06T02:42:40.309Z,95424.15
2019-04-06T02:43:47.653Z,95421.56
2019-04-06T02:44:54.918Z,95422.73
2019-04-06T02:46:02.116Z,95427.64
2019-04-06T02:47:09.342Z,95430.92
2019-04-06T02:48:16.571Z,95432.08
2019-04-06T02:49:23.826Z,95431.95
2019-04-06T02:50:31.057Z,95429.55
2019-04-06T02:51:38.347Z,95435.07
2019-04-06T02:52:45.709Z,95434.13
2019-04-06T02:53:52.950Z,95434.13
2019-04-06T02:55:00.195Z,95432.83
2019-04-06T02:56:07.400Z,95428.95
2019-04-06T02:57:14.583Z,95437.53
2019-04-06T02:58:23.255Z,95432.83
2019-04-06T02:59:30.717Z,95433.30
2019-04-06T03:00:38.152Z,95435.55
2019-04-06T03:01:45.590Z,95429.55
2019-04-06T03:02:52.844Z,95431.00
2019-04-06T03:04:00.489Z,95429.23
2019-04-06T03:05:08.318Z,95425.48
2019-04-06T03:06:15.526Z,95428.07
2019-04-06T03:07:22.749Z,95426.44
2019-04-06T03:08:29.989Z,95427.73
2019-04-06T03:09:38.374Z,95422.55
2019-04-06T03:10:45.584Z,95424.80
2019-04-06T03:11:52.875Z,95426.44
2019-04-06T03:13:00.050Z,95426.09
2019-04-06T03:14:07.596Z,95431.27
2019-04-06T03:15:14.890Z,95426.22
2019-04-06T03:16:22.112Z,95424.45
2019-04-06T03:17:29.339Z,95433.16
2019-04-06T03:18:36.654Z,95428.94
2019-04-06T03:19:43.963Z,95431.17
2019-04-06T03:20:51.166Z,95427.90
2019-04-06T03:21:58.529Z,95434.37
2019-04-06T03:23:05.878Z,95427.55
2019-04-06T03:24:14.111Z,95428.98
2019-04-06T03:25:21.314Z,95429.95
2019-04-06T03:26:28.525Z,95436.08
2019-04-06T03:27:35.709Z,95433.97
2019-04-06T03:28:42.914Z,95436.55
2019-04-06T03:29:57.581Z,95436.55
2019-04-06T03:30:59.073Z,95432.33
2019-04-06T03:32:06.279Z,95436.20
2019-04-06T03:33:13.614Z,95434.09
2019-04-06T03:34:22.512Z,95433.75
2019-04-06T03:35:30.140Z,95437.75
2019-04-06T03:36:37.364Z,95435.17
2019-04-06T03:37:44.595Z,95434.48
2019-04-06T03:38:51.815Z,95436.12
2019-04-06T03:39:59.147Z,95435.77
2019-04-06T03:41:07.937Z,95434.48
2019-04-06T03:42:15.129Z,95435.77
2019-04-06T03:43:23.780Z,95430.73
2019-04-06T03:44:30.982Z,95435.08
2019-04-06T03:45:38.339Z,95437.48
2019-04-06T03:46:45.581Z,95433.25
2019-04-06T03:47:52.961Z,95438.08
2019-04-06T03:49:00.164Z,95436.44
2019-04-06T03:50:09.119Z,95439.98
2019-04-06T03:51:16.523Z,95435.27
2019-04-06T03:52:23.815Z,95437.05
2019-04-06T03:53:32.133Z,95441.05
2019-04-06T03:54:39.466Z,95438.47
2019-04-06T03:55:46.896Z,95442.34
2019-04-06T03:56:54.131Z,95435.06
2019-04-06T03:58:01.342Z,95441.05
2019-04-06T03:59:08.597Z,95440.70
2019-04-06T04:00:16.998Z,95435.53
2019-04-06T04:01:24.352Z,95434.23
2019-04-06T04:02:31.639Z,95433.42
2019-04-06T04:03:38.968Z,95439.41
2019-04-06T04:04:47.228Z,95434.59
2019-04-06T04:05:54.412Z,95432.12
2019-04-06T04:07:01.607Z,95432.95
2019-04-06T04:08:08.951Z,95434.71
2019-04-06T04:09:16.270Z,95427.91
2019-04-06T04:10:36.202Z,95432.59
2019-04-06T04:11:43.604Z,95429.20
2019-04-06T04:12:51.919Z,95433.33
2019-04-06T04:13:59.153Z,95428.44
2019-04-06T04:15:07.585Z,95427.97
2019-04-06T04:16:14.850Z,95426.67
2019-04-06T04:17:22.241Z,95423.75
2019-04-06T04:18:29.501Z,95423.40
2019-04-06T04:19:36.694Z,95426.33
2019-04-06T04:20:44.112Z,95421.63
2019-04-06T04:21:51.370Z,95422.92
2019-04-06T04:22:58.719Z,95424.09
2019-04-06T04:24:06.041Z,95422.45
2019-04-06T04:25:13.196Z,95427.15
2019-04-06T04:26:20.490Z,95427.50
2019-04-06T04:27:30.274Z,95419.27
2019-04-06T04:28:36.596Z,95424.44
2019-04-06T04:29:43.927Z,95423.14
2019-04-06T04:30:51.149Z,95428.16
2019-04-06T04:31:58.403Z,95426.39
2019-04-06T04:33:05.615Z,95423.33
2019-04-06T04:34:12.810Z,95424.15
2019-04-06T04:35:20.031Z,95425.79
2019-04-06T04:36:27.274Z,95421.91
2019-04-06T04:37:34.560Z,95430.02
2019-04-06T04:38:41.773Z,95425.31
2019-04-06T04:39:48.979Z,95426.27
2019-04-06T04:40:56.177Z,95428.03
2019-04-06T04:42:03.591Z,95435.78
2019-04-06T04:43:10.781Z,95431.25
2019-04-06T04:44:18.007Z,95435.59
2019-04-06T04:45:26.274Z,95436.07
2019-04-06T04:46:33.477Z,95432.19
2019-04-06T04:47:40.702Z,95432.19
2019-04-06T04:48:47.912Z,95433.48
2019-04-06T04:49:55.170Z,95435.13
2019-04-06T04:51:02.413Z,95435.13
2019-04-06T04:52:09.623Z,95438.19
2019-04-06T04:53:16.882Z,95432.19
2019-04-06T04:54:24.063Z,95437.97
2019-04-06T04:55:31.284Z,95443.39
2019-04-06T04:56:38.496Z,95429.30
2019-04-06T04:57:45.820Z,95439.29
2019-04-06T04:58:53.245Z,95439.89
2019-04-06T05:00:00.547Z,95439.07
2019-04-06T05:01:07.773Z,95443.42
2019-04-06T05:02:15.005Z,95442.13
2019-04-06T05:03:22.247Z,95444.24
2019-04-06T05:04:29.603Z,95444.59
2019-04-06T05:05:37.505Z,95447.99
2019-04-06T05:06:44.760Z,95444.94
2019-04-06T05:07:51.969Z,95451.27
2019-04-06T05:08:59.210Z,95447.27
2019-04-06T05:10:08.641Z,95450.67
2019-04-06T05:11:15.944Z,95447.96
2019-04-06T05:12:23.154Z,95451.37
2019-04-06T05:13:30.394Z,95452.53
2019-04-06T05:15:00.367Z,95444.65
2019-04-06T05:16:14.645Z,95449.66
2019-04-06T05:17:21.852Z,95450.20
2019-04-06T05:18:29.093Z,95452.09
2019-04-06T05:19:36.348Z,95452.44
2019-04-06T05:20:43.571Z,95455.38
2019-04-06T05:21:50.757Z,95458.05
2019-04-06T05:22:57.942Z,95448.05
2019-04-06T05:24:05.221Z,95445.66
2019-04-06T05:25:12.660Z,95449.75
2019-04-06T05:26:19.992Z,95450.45
2019-04-06T05:27:27.304Z,95452.91
2019-04-06T05:28:34.531Z,95449.72
2019-04-06T05:29:42.751Z,95448.77
2019-04-06T05:30:50.135Z,95450.73
2019-04-06T05:31:58.415Z,95450.47
2019-04-06T05:33:05.643Z,95449.52
2019-04-06T05:34:12.886Z,95445.64
2019-04-06T05:35:20.110Z,95452.33
2019-04-06T05:36:27.389Z,95456.08
2019-04-06T05:37:34.702Z,95454.66
2019-04-06T05:38:41.923Z,95454.19
2019-04-06T05:39:49.146Z,95457.59
2019-04-06T05:40:56.514Z,95463.89
2019-04-06T05:42:04.215Z,95463.30
2019-04-06T05:43:11.435Z,95464.59
2019-04-06T05:44:18.654Z,95461.88
2019-04-06T05:45:25.863Z,95466.92
2019-04-06T05:46:33.191Z,95469.03
2019-04-06T05:47:40.421Z,95471.63
2019-04-06T05:48:47.643Z,95473.95
2019-04-06T05:49:54.884Z,95471.36
2019-04-06T05:51:02.138Z,95473.34
2019-04-06T05:52:09.376Z,95471.58
2019-04-06T05:53:16.593Z,95479.19
2019-04-06T05:54:23.818Z,95477.77
2019-04-06T05:55:31.046Z,95483.76
2019-04-06T05:56:38.294Z,95481.17
2019-04-06T05:57:45.497Z,95477.63
2019-04-06T05:58:52.752Z,95481.86
2019-04-06T05:59:59.966Z,95483.50
2019-04-06T06:01:10.233Z,95480.91
2019-04-06T06:02:16.112Z,95483.84
2019-04-06T06:03:23.283Z,95489.36
2019-04-06T06:04:30.562Z,95489.84
2019-04-06T06:05:40.339Z,95491.03
2019-04-06T06:06:46.724Z,95501.73
2019-04-06T06:07:53.966Z,95500.44
2019-04-06T06:09:01.197Z,95501.12
2019-04-06T06:10:10.172Z,95503.24
2019-04-06T06:11:17.418Z,95500.66
2019-04-06T06:12:24.700Z,95500.66
2019-04-06T06:13:31.898Z,95497.91
2019-04-06T06:14:39.108Z,95500.50
2019-04-06T06:15:46.347Z,95503.91
2019-04-06T06:16:53.603Z,95505.67
2019-04-06T06:18:00.894Z,95501.48
2019-04-06T06:19:08.331Z,95494.50
2019-04-06T06:20:16.095Z,95495.00
2019-04-06T06:21:23.317Z,95505.36
2019-04-06T06:22:30.587Z,95501.48
2019-04-06T06:23:37.820Z,95501.48
2019-04-06T06:24:45.039Z,95497.59
2019-04-06T06:25:52.284Z,95497.91
2019-04-06T06:26:59.502Z,95498.25
2019-04-06T06:28:14.210Z,95498.59
2019-04-06T06:29:15.741Z,95495.67
2019-04-06T06:30:23.330Z,95500.02
2019-04-06T06:31:30.546Z,95492.73
2019-04-06T06:32:37.904Z,95494.38
2019-04-06T06:33:45.298Z,95490.14
2019-04-06T06:34:52.674Z,95490.62
2019-04-06T06:35:59.926Z,95488.84
2019-04-06T06:37:07.208Z,95493.71
2019-04-06T06:38:14.406Z,95500.50
2019-04-06T06:39:21.699Z,95491.13
2019-04-06T06:40:28.917Z,95496.30
2019-04-06T06:41:36.149Z,95495.95
2019-04-06T06:42:43.371Z,95491.44
2019-04-06T06:43:50.684Z,95492.26
2019-04-06T06:44:57.960Z,95494.38
2019-04-06T06:46:05.318Z,95490.97
2019-04-06T06:47:13.700Z,95491.44
2019-04-06T06:48:20.927Z,95493.89
2019-04-06T06:49:28.136Z,95492.12
2019-04-06T06:50:35.443Z,95495.88
2019-04-06T06:51:42.737Z,95494.94
2019-04-06T06:52:50.201Z,95489.63
2019-04-06T06:53:58.729Z,95491.14
2019-04-06T06:55:06.445Z,95487.73
2019-04-06T06:56:13.834Z,95492.91
2019-04-06T06:57:21.076Z,95493.73
2019-04-06T06:58:28.329Z,95493.25
2019-04-06T06:59:35.596Z,95497.95
2019-04-06T07:00:42.826Z,95492.30
2019-04-06T07:01:50.300Z,95492.30
2019-04-06T07:02:57.570Z,95493.12
2019-04-06T07:04:04.879Z,95494.77
2019-04-06T07:05:12.318Z,95493.12
2019-04-06T07:06:20.530Z,95490.38
2019-04-06T07:07:27.770Z,95494.60
2019-04-06T07:08:35.074Z,95491.06
2019-04-06T07:09:42.330Z,95493.52
2019-04-06T07:10:49.614Z,95493.05
2019-04-06T07:11:56.859Z,95489.37
2019-04-06T07:13:04.281Z,95487.48
2019-04-06T07:14:11.547Z,95484.28
2019-04-06T07:15:18.773Z,95494.52
2019-04-06T07:16:26.003Z,95494.98
2019-04-06T07:17:33.224Z,95490.28
2019-04-06T07:18:40.437Z,95496.75
2019-04-06T07:19:47.683Z,95495.12
2019-04-06T07:20:54.938Z,95490.28
2019-04-06T07:22:02.189Z,95488.04
2019-04-06T07:23:09.416Z,95492.58
2019-04-06T07:24:16.658Z,95494.09
2019-04-06T07:25:23.898Z,95496.08
2019-04-06T07:26:31.292Z,95489.59
2019-04-06T07:27:38.529Z,95495.94
2019-04-06T07:28:45.833Z,95501.12
2019-04-06T07:29:53.086Z,95492.19
2019-04-06T07:31:00.313Z,95495.25
2019-04-06T07:32:07.554Z,95497.50
2019-04-06T07:33:14.785Z,95498.10
2019-04-06T07:34:22.038Z,95499.53
2019-04-06T07:35:29.278Z,95499.19
2019-04-06T07:36:36.503Z,95498.70
2019-04-06T07:37:43.720Z,95497.10
2019-04-06T07:38:51.060Z,95499.19
2019-04-06T07:39:58.286Z,95498.23
2019-04-06T07:41:05.515Z,95500.83
2019-04-06T07:42:12.768Z,95503.63
2019-04-06T07:43:20.009Z,95504.79
2019-04-06T07:44:27.240Z,95505.95
2019-04-06T07:45:34.496Z,95506.64
2019-04-06T07:46:41.742Z,95504.40
2019-04-06T07:47:49.117Z,95507.20
2019-04-06T07:49:07.431Z,95505.75
2019-04-06T07:50:05.976Z,95505.14
2019-04-06T07:51:13.219Z,95499.01
2019-04-06T07:52:20.448Z,95494.86
2019-04-06T07:53:27.671Z,95495.42
2019-04-06T07:54:34.899Z,95496.89
2019-04-06T07:55:42.121Z,95495.81
2019-04-06T07:56:49.362Z,95492.61
2019-04-06T07:57:56.878Z,95493.77
2019-04-06T07:59:05.105Z,95494.59
2019-04-06T08:00:12.752Z,95492.34
2019-04-06T08:01:20.230Z,95490.09
2019-04-06T08:02:27.519Z,95491.27
2019-04-06T08:03:34.778Z,95485.61
2019-04-06T08:04:42.000Z,95480.27
2019-04-06T08:05:49.230Z,95485.78
2019-04-06T08:06:56.468Z,95484.36
2019-04-06T08:08:03.711Z,95480.95
2019-04-06T08:09:11.018Z,95481.29
2019-04-06T08:10:18.239Z,95489.06
2019-04-06T08:11:25.537Z,95480.81
2019-04-06T08:12:32.719Z,95484.56
2019-04-06T08:13:39.943Z,95481.84
2019-04-06T08:14:47.173Z,95480.76
2019-04-06T08:15:54.430Z,95480.63
2019-04-06T08:17:01.627Z,95476.09
2019-04-06T08:18:08.850Z,95477.73
2019-04-06T08:19:16.289Z,95477.60
2019-04-06T08:20:23.569Z,95473.72
2019-04-06T08:21:30.811Z,95473.37
2019-04-06T08:22:38.055Z,95473.84
2019-04-06T08:23:46.433Z,95482.09
2019-04-06T08:24:53.659Z,95474.33
2019-04-06T08:26:00.902Z,95472.21
2019-04-06T08:27:08.217Z,95467.37
2019-04-06T08:28:15.429Z,95463.00
2019-04-06T08:29:22.677Z,95465.94
2019-04-06T08:30:29.942Z,95469.22
2019-04-06T08:31:37.185Z,95464.03
2019-04-06T08:32:44.438Z,95460.02
2019-04-06T08:33:51.728Z,95465.87
2019-04-06T08:34:59.061Z,95461.04
2019-04-06T08:36:06.316Z,95465.61
2019-04-06T08:37:13.537Z,95469.20
2019-04-06T08:38:20.750Z,95458.42
2019-04-06T08:39:27.980Z,95466.27
2019-04-06T08:40:35.264Z,95466.31
2019-04-06T08:41:42.507Z,95470.41
2019-04-06T08:42:49.913Z,95467.41
2019-04-06T08:43:57.269Z,95471.36
2019-04-06T08:45:04.620Z,95468.84
2019-04-06T08:46:11.887Z,95469.04
2019-04-06T08:47:19.126Z,95465.56
2019-04-06T08:48:26.356Z,95472.41
2019-04-06T08:49:33.654Z,95469.41
2019-04-06T08:50:40.895Z,95467.19
2019-04-06T08:51:48.169Z,95473.73
2019-04-06T08:52:55.436Z,95474.14
2019-04-06T08:54:02.727Z,95474.99
2019-04-06T08:55:10.296Z,95470.83
2019-04-06T08:56:18.857Z,95474.78
2019-04-06T08:57:26.129Z,95467.33
2019-04-06T08:58:33.502Z,95466.55
2019-04-06T08:59:40.774Z,95474.05
2019-04-06T09:00:48.109Z,95467.28
2019-04-06T09:01:55.623Z,95465.87
2019-04-06T09:03:02.874Z,95463.20
2019-04-06T09:04:10.115Z,95463.59
2019-04-06T09:05:17.453Z,95465.93
2019-04-06T09:06:24.675Z,95461.95
2019-04-06T09:07:31.910Z,95455.14
2019-04-06T09:08:39.113Z,95458.13
2019-04-06T09:09:46.477Z,95459.00
2019-04-06T09:10:53.806Z,95455.50
2019-04-06T09:12:01.061Z,95456.22
2019-04-06T09:13:08.415Z,95455.61
2019-04-06T09:14:15.612Z,95456.00
2019-04-06T09:15:22.824Z,95456.83
2019-04-06T09:16:30.052Z,95448.27
2019-04-06T09:17:37.321Z,95456.25
2019-04-06T09:18:44.578Z,95455.48
2019-04-06T09:19:51.804Z,95459.40
2019-04-06T09:20:59.321Z,95453.77
2019-04-06T09:22:06.554Z,95455.11
2019-04-06T09:23:13.799Z,95452.19
2019-04-06T09:24:21.244Z,95452.38
2019-04-06T09:25:28.471Z,95447.99
2019-04-06T09:26:35.683Z,95449.81
2019-04-06T09:27:43.146Z,95448.23
2019-04-06T09:28:50.450Z,95439.14
2019-04-06T09:29:57.769Z,95440.33
2019-04-06T09:31:05.032Z,95437.28
2019-04-06T09:32:12.340Z,95428.67
2019-04-06T09:33:19.638Z,95429.68
2019-04-06T09:34:26.881Z,95427.59
2019-04-06T09:35:34.124Z,95432.17
2019-04-06T09:36:41.347Z,95433.32
2019-04-06T09:37:49.841Z,95432.80
2019-04-06T09:38:57.350Z,95434.11
2019-04-06T09:40:05.527Z,95434.92
2019-04-06T09:41:13.823Z,95431.84
2019-04-06T09:42:21.226Z,95441.13
2019-04-06T09:43:28.670Z,95434.17
2019-04-06T09:45:00.827Z,95432.91
2019-04-06T09:46:15.066Z,95436.70
2019-04-06T09:47:28.388Z,95433.31
2019-04-06T09:48:56.038Z,95430.74
2019-04-06T09:50:25.605Z,95432.89
2019-04-06T09:51:57.859Z,95435.19
2019-04-06T09:53:30.194Z,95432.59
2019-04-06T09:54:56.282Z,95428.35
2019-04-06T09:56:25.198Z,95425.45
2019-04-06T09:58:01.784Z,95424.84
2019-04-06T09:59:35.335Z,95424.84
2019-04-06T10:00:51.552Z,95429.22
2019-04-06T10:02:26.912Z,95425.02
2019-04-06T10:03:43.697Z,95416.72
2019-04-06T10:05:15.387Z,95425.68
2019-04-06T10:06:53.380Z,95418.38
2019-04-06T10:08:28.345Z,95420.98
2019-04-06T10:09:49.446Z,95422.77
2019-04-06T10:11:03.724Z,95414.33
2019-04-06T10:12:28.548Z,95414.98
2019-04-06T10:13:57.722Z,95414.17
2019-04-06T10:15:16.338Z,95409.15
2019-04-06T10:17:00.918Z,95410.80
2019-04-06T10:18:25.838Z,95408.52
2019-04-06T10:19:48.300Z,95404.45
2019-04-06T10:21:05.847Z,95405.43
2019-04-06T10:22:38.058Z,95400.88
2019-04-06T10:24:00.296Z,95405.80
2019-04-06T10:25:20.892Z,95406.60
2019-04-06T10:26:49.856Z,95405.98
2019-04-06T10:28:19.987Z,95407.80
2019-04-06T10:29:50.723Z,95406.34
2019-04-06T10:31:05.858Z,95399.35
2019-04-06T10:32:35.195Z,95398.86
2019-04-06T10:34:05.808Z,95390.25
2019-04-06T10:35:25.876Z,95393.16
2019-04-06T10:36:56.657Z,95390.88
2019-04-06T10:38:40.959Z,95381.94
2019-04-06T10:40:15.769Z,95388.11
2019-04-06T10:41:51.007Z,95381.94
2019-04-06T10:43:24.794Z,95384.22
2019-04-06T10:44:41.695Z,95383.70
2019-04-06T10:46:07.801Z,95385.02
2019-04-06T10:47:42.967Z,95380.78
2019-04-06T10:49:04.981Z,95376.69
2019-04-06T10:50:21.061Z,95377.97
2019-04-06T10:51:51.461Z,95382.53
2019-04-06T10:53:16.303Z,95369.81
2019-04-06T10:54:42.418Z,95372.59
2019-04-06T10:56:15.194Z,95370.47
2019-04-06T10:57:40.222Z,95361.66
2019-04-06T10:59:17.236Z,95367.53
2019-04-06T11:00:49.343Z,95365.38
2019-04-06T11:02:15.461Z,95366.52
2019-04-06T11:03:37.437Z,95369.25
2019-04-06T11:04:52.620Z,95357.94
2019-04-06T11:06:08.462Z,95355.44
2019-04-06T11:07:30.464Z,95363.22
2019-04-06T11:08:47.892Z,95353.56
2019-04-06T11:10:14.068Z,95353.84
2019-04-06T11:11:38.877Z,95346.17
2019-04-06T11:13:14.182Z,95344.66
2019-04-06T11:14:34.716Z,95340.41
2019-04-06T11:16:06.700Z,95341.59
2019-04-06T11:17:29.209Z,95341.22
2019-04-06T11:19:01.505Z,95335.98
2019-04-06T11:20:25.184Z,95328.77
2019-04-06T11:21:42.556Z,95328.23
2019-04-06T11:23:08.656Z,95335.89
2019-04-06T11:24:51.065Z,95333.28
2019-04-06T11:26:23.161Z,95325.59
2019-04-06T11:27:40.123Z,95322.83
2019-04-06T11:29:09.524Z,95322.66
2019-04-06T11:30:39.517Z,95319.53
2019-04-06T11:32:05.726Z,95319.48
2019-04-06T11:33:22.345Z,95323.55
2019-04-06T11:34:52.367Z,95318.47
2019-04-06T11:36:16.028Z,95322.37
2019-04-06T11:37:37.746Z,95316.45
2019-04-06T11:39:06.667Z,95317.23
2019-04-06T11:40:29.407Z,95322.88
2019-04-06T11:41:58.520Z,95325.61
2019-04-06T11:43:27.598Z,95314.63
2019-04-06T11:44:42.593Z,95311.78
2019-04-06T11:45:56.325Z,95313.20
2019-04-06T11:47:21.070Z,95311.03
2019-04-06T11:48:45.725Z,95309.30
2019-04-06T11:50:14.975Z,95309.45
2019-04-06T11:51:50.276Z,95311.22
2019-04-06T11:53:15.160Z,95302.14
2019-04-06T11:54:32.427Z,95304.22
2019-04-06T11:56:00.476Z,95298.49
2019-04-06T11:57:41.811Z,95300.27
2019-04-06T11:59:19.795Z,95297.58
2019-04-06T12:00:36.981Z,95301.28
2019-04-06T12:02:08.939Z,95298.14
2019-04-06T12:03:21.442Z,95300.51
2019-04-06T12:04:47.581Z,95293.92
2019-04-06T12:06:17.010Z,95293.31
2019-04-06T12:07:42.126Z,95296.23
2019-04-06T12:09:07.003Z,95290.17
2019-04-06T12:10:29.162Z,95285.25
2019-04-06T12:12:01.773Z,95279.06
2019-04-06T12:13:34.592Z,95285.88
2019-04-06T12:15:03.357Z,95279.15
2019-04-06T12:16:35.290Z,95279.96
2019-04-06T12:18:07.182Z,95274.22
2019-04-06T12:19:36.493Z,95267.03
2019-04-06T12:21:08.006Z,95265.84
2019-04-06T12:22:29.153Z,95270.26
2019-04-06T12:26:04.379Z,95269.55
2019-04-06T12:27:30.508Z,95267.42
2019-04-06T12:29:08.702Z,95268.36
2019-04-06T12:30:37.234Z,95265.90
2019-04-06T12:32:02.437Z,95269.68
2019-04-06T12:33:28.782Z,95261.97
2019-04-06T12:34:57.836Z,95266.66
2019-04-06T12:36:10.393Z,95266.30
2019-04-06T12:37:29.508Z,95263.80
2019-04-06T12:38:53.987Z,95263.45
2019-04-06T12:40:23.100Z,95264.31
2019-04-06T12:41:50.918Z,95257.08
2019-04-06T12:43:08.835Z,95264.72
2019-04-06T12:44:34.231Z,95255.03
2019-04-06T12:46:09.556Z,95255.43
2019-04-06T12:47:38.725Z,95250.38
2019-04-06T12:49:11.136Z,95254.03
2019-04-06T12:50:36.015Z,95246.23
2019-04-06T12:52:05.686Z,95244.23
2019-04-06T12:53:30.946Z,95252.09
2019-04-06T12:54:55.709Z,95250.70
2019-04-06T12:56:34.154Z,95246.75
2019-04-06T12:57:57.382Z,95256.58
2019-04-06T12:59:24.192Z,95250.67
2019-04-06T13:00:52.906Z,95255.73
2019-04-06T13:02:15.786Z,95250.30
2019-04-06T13:03:41.916Z,95245.86
2019-04-06T13:05:06.735Z,95245.74
2019-04-06T13:06:27.709Z,95247.36
2019-04-06T13:07:57.826Z,95242.49
2019-04-06T13:09:15.989Z,95243.92
2019-04-06T13:10:48.675Z,95240.99
2019-04-06T13:12:02.116Z,95242.11
2019-04-06T13:13:37.652Z,95245.93
2019-04-06T13:14:52.945Z,95238.87
2019-04-06T13:16:18.145Z,95235.44
2019-04-06T13:17:39.006Z,95232.11
2019-04-06T13:19:04.378Z,95233.50
2019-04-06T13:20:29.456Z,95245.59
2019-04-06T13:21:44.845Z,95242.91
2019-04-06T13:23:09.811Z,95238.76
2019-04-06T13:24:40.331Z,95242.70
2019-04-06T13:26:14.068Z,95228.70
2019-04-06T13:27:31.153Z,95233.55
2019-04-06T13:29:15.647Z,95222.80
2019-04-06T13:30:42.735Z,95234.48
2019-04-06T13:32:13.128Z,95232.52
2019-04-06T13:33:48.319Z,95232.55
2019-04-06T13:35:11.316Z,95227.17
2019-04-06T13:36:43.475Z,95233.42
2019-04-06T13:38:17.278Z,95232.36
2019-04-06T13:39:31.932Z,95228.48
2019-04-06T13:40:58.032Z,95239.86
2019-04-06T13:42:24.469Z,95234.45
2019-04-06T13:43:40.988Z,95228.36
2019-04-06T13:44:55.008Z,95230.34
2019-04-06T13:46:22.390Z,95226.24
2019-04-06T13:47:51.633Z,95228.42
2019-04-06T13:49:11.192Z,95228.20
2019-04-06T13:50:37.603Z,95232.36
2019-04-06T13:51:54.311Z,95226.20
2019-04-06T13:53:29.264Z,95228.25
2019-04-06T13:54:54.223Z,95228.98
2019-04-06T13:56:38.642Z,95228.18
2019-04-06T13:58:07.752Z,95234.81
2019-04-06T13:59:27.058Z,95230.83
2019-04-06T14:01:16.247Z,95226.89
2019-04-06T14:02:36.177Z,95233.57
2019-04-06T14:04:04.915Z,95226.48
2019-04-06T14:05:33.900Z,95224.57
2019-04-06T14:06:47.356Z,95222.00
2019-04-06T14:08:13.760Z,95221.92
2019-04-06T14:09:45.566Z,95213.02
2019-04-06T14:11:11.622Z,95222.42
2019-04-06T14:12:56.108Z,95219.75
2019-04-06T14:14:29.854Z,95220.13
2019-04-06T14:16:03.547Z,95223.43
2019-04-06T14:17:27.351Z,95226.53
2019-04-06T14:18:53.465Z,95228.10